Oil Finn — OJ9326 — position and weather

sailwx.info

Track history (hours):
 
Tides and Currents Weather Stations Pressure Air Temp Water Temp Dewpoint Dewpoint Depression Visibility Wind Speed Wind Dir Waves Ship Positions

Oil Finn

Last reported at 2017-Sep-29 08:43 UTC. Time now 2017-Oct-19 12:32 UTC.
Position N 60°09' E 024°59'.
Warning: this ship's position is 20 days out of date.

Length 20 m; draft 2 m.

Type: Tanker. MMSI: 230033790.

Date/timePositionNaut miles runAvg speedWind from/ knotsBaromVisibWave heightAir tempDewpointWater temp
2017-Sep-29 08:43N 60°09' E 024°59'4 0.2
2017-Sep-28 11:55N 60°11' E 025°07'3 6.1
2017-Sep-28 11:30N 60°11' E 025°12'6 6.4
2017-Sep-28 10:31N 60°14' E 025°23'1 6.7
2017-Sep-28 10:22N 60°15' E 025°24'1 0.3
2017-Sep-28 07:00N 60°15' E 025°22'3 5.8
2017-Sep-28 06:25N 60°12' E 025°20'10 5.4
2017-Sep-28 04:38N 60°09' E 025°01'28 0.7
2017-Sep-26 12:31N 59°57' E 024°11'1 5.2
2017-Sep-26 12:23N 59°57' E 024°10'2 5.2
2017-Sep-26 11:59N 59°57' E 024°06'3 5.4
2017-Sep-26 11:31N 59°56' E 024°01'0 0.1
2017-Sep-26 09:26N 59°56' E 024°01'  
Track history (hours):
 
Tides and Currents Weather Stations Pressure Air Temp Water Temp Dewpoint Dewpoint Depression Visibility Wind Speed Wind Dir Waves Ship Positions

Oil Finn

Last reported at 2017-Sep-29 08:43 UTC. Time now 2017-Oct-19 12:32 UTC.
Position N 60°09' E 024°59'.
Warning: this ship's position is 20 days out of date.

Length 20 m; draft 2 m.

Type: Tanker. MMSI: 230033790.

Date/timePositionNaut miles runAvg speedWind from/ knotsBaromVisibWave heightAir tempDewpointWater temp
2017-Sep-29 08:43N 60°09' E 024°59'4 0.2
2017-Sep-28 11:55N 60°11' E 025°07'3 6.1
2017-Sep-28 11:30N 60°11' E 025°12'6 6.4
2017-Sep-28 10:31N 60°14' E 025°23'1 6.7
2017-Sep-28 10:22N 60°15' E 025°24'1 0.3
2017-Sep-28 07:00N 60°15' E 025°22'3 5.8
2017-Sep-28 06:25N 60°12' E 025°20'10 5.4
2017-Sep-28 04:38N 60°09' E 025°01'28 0.7
2017-Sep-26 12:31N 59°57' E 024°11'1 5.2
2017-Sep-26 12:23N 59°57' E 024°10'2 5.2
2017-Sep-26 11:59N 59°57' E 024°06'3 5.4
2017-Sep-26 11:31N 59°56' E 024°01'0 0.1
2017-Sep-26 09:26N 59°56' E 024°01'  

Dump ship's entire track history